Time;durP1;ratioP1;P1;durP2;ratioP2;P2;SDS_P1;SDS_P2;PMS_P1;PMS_P2;Temp;Humidity;BMP_temperature;BMP_pressure;BME280_temperature;BME280_humidity;BME280_pressure;Samples;Min_cycle;Max_cycle;Signal;HPM_P1;HPM_P2
2022/11/28 00:00:39;;;;;;;3.93;2.07;;;;;;;;;;5030845;28;20215;-65
2022/11/28 00:03:06;;;;;;;4.10;2.30;;;;;;;;;;5035817;28;20208;-65
2022/11/28 00:05:35;;;;;;;5.47;2.33;;;;;;;;;;5041714;28;20556;-65
2022/11/28 00:08:02;;;;;;;2.10;2.00;;;;;;;;;;5043147;28;20215;-65
2022/11/28 00:10:29;;;;;;;3.50;2.03;;;;;;;;;;5031075;28;20218;-65
2022/11/28 00:12:56;;;;;;;2.30;2.07;;;;;;;;;;5044232;28;20727;-65
2022/11/28 00:15:25;;;;;;;2.47;1.90;;;;;;;;;;5033607;28;20211;-66
2022/11/28 00:17:52;;;;;;;2.47;2.27;;;;;;;;;;5034708;28;20232;-65
2022/11/28 00:20:19;;;;;;;3.77;2.60;;;;;;;;;;5033493;28;20211;-65
2022/11/28 00:22:46;;;;;;;4.87;2.17;;;;;;;;;;5042532;28;20282;-65
2022/11/28 00:25:13;;;;;;;2.20;2.10;;;;;;;;;;5047775;28;20207;-65
2022/11/28 00:27:40;;;;;;;2.33;2.17;;;;;;;;;;5031606;28;20205;-65
2022/11/28 00:30:08;;;;;;;2.53;2.33;;;;;;;;;;5030538;28;20211;-65
2022/11/28 00:32:36;;;;;;;2.33;1.97;;;;;;;;;;5029727;28;20200;-65
2022/11/28 00:35:04;;;;;;;4.53;2.50;;;;;;;;;;5030131;28;20206;-64
2022/11/28 00:37:31;;;;;;;3.13;2.70;;;;;;;;;;5039483;28;20593;-64
2022/11/28 00:39:58;;;;;;;9.30;3.07;;;;;;;;;;5036779;28;20249;-65
2022/11/28 00:42:25;;;;;;;3.50;2.73;;;;;;;;;;5030178;28;20204;-65
2022/11/28 00:44:52;;;;;;;4.13;2.67;;;;;;;;;;5033700;28;20212;-65
2022/11/28 00:47:19;;;;;;;4.43;2.23;;;;;;;;;;5028504;28;20203;-65
2022/11/28 00:49:47;;;;;;;2.20;1.80;;;;;;;;;;5045758;28;20282;-65
2022/11/28 00:52:14;;;;;;;2.60;1.80;;;;;;;;;;5044879;28;20211;-65
2022/11/28 00:54:42;;;;;;;2.57;1.90;;;;;;;;;;5032748;28;20613;-65
2022/11/28 00:57:09;;;;;;;4.17;1.93;;;;;;;;;;5039870;28;20250;-65
2022/11/28 00:59:36;;;;;;;5.17;2.13;;;;;;;;;;5041623;28;20252;-65
2022/11/28 01:02:03;;;;;;;2.53;1.93;;;;;;;;;;5032750;28;20204;-65
2022/11/28 01:04:30;;;;;;;1.73;1.63;;;;;;;;;;5031160;28;20218;-65
2022/11/28 01:06:58;;;;;;;1.90;1.80;;;;;;;;;;5032189;28;20215;-65
2022/11/28 01:09:26;;;;;;;3.00;2.67;;;;;;;;;;5039122;28;20202;-65
2022/11/28 01:11:53;;;;;;;1.83;1.73;;;;;;;;;;5034580;28;20212;-65
2022/11/28 01:14:21;;;;;;;3.03;2.40;;;;;;;;;;5036581;28;20202;-65
2022/11/28 01:16:48;;;;;;;1.87;1.77;;;;;;;;;;5038933;28;20211;-65
2022/11/28 01:19:16;;;;;;;1.70;1.70;;;;;;;;;;5036669;28;20212;-65
2022/11/28 01:21:43;;;;;;;2.70;2.03;;;;;;;;;;5028302;28;20212;-65
2022/11/28 01:24:11;;;;;;;2.40;1.83;;;;;;;;;;5041888;28;20214;-65
2022/11/28 01:26:39;;;;;;;3.00;2.20;;;;;;;;;;5039503;28;20212;-65
2022/11/28 01:29:06;;;;;;;2.40;2.20;;;;;;;;;;5041145;28;20204;-65
2022/11/28 01:31:33;;;;;;;1.73;1.67;;;;;;;;;;5049641;28;20214;-65
2022/11/28 01:34:00;;;;;;;1.73;1.63;;;;;;;;;;5050092;28;20673;-65
2022/11/28 01:36:28;;;;;;;4.10;2.40;;;;;;;;;;5042284;28;20218;-65
2022/11/28 01:38:55;;;;;;;3.33;2.23;;;;;;;;;;5031649;28;20231;-65
2022/11/28 01:41:24;;;;;;;3.60;2.90;;;;;;;;;;5044750;28;20209;-65
2022/11/28 01:43:58;;;;;;;3.53;2.17;;;;;;;;;;5038239;28;20206;-64
2022/11/28 01:46:25;;;;;;;1.90;1.80;;;;;;;;;;5032411;28;20204;-65
2022/11/28 01:48:53;;;;;;;2.67;2.47;;;;;;;;;;5034183;28;20206;-65
2022/11/28 01:51:21;;;;;;;2.70;2.20;;;;;;;;;;5044216;28;20223;-64
2022/11/28 01:53:48;;;;;;;2.87;2.53;;;;;;;;;;5042129;28;20204;-64
2022/11/28 01:56:18;;;;;;;3.63;2.63;;;;;;;;;;5033255;28;20235;-64
2022/11/28 01:58:48;;;;;;;3.70;2.10;;;;;;;;;;5046450;28;20243;-63
2022/11/28 02:01:15;;;;;;;4.30;2.63;;;;;;;;;;5034860;28;20204;-65
2022/11/28 02:03:47;;;;;;;2.63;2.43;;;;;;;;;;5036245;28;20594;-64
2022/11/28 02:06:14;;;;;;;2.73;2.53;;;;;;;;;;5038096;28;20210;-64
2022/11/28 02:08:41;;;;;;;2.87;2.50;;;;;;;;;;5044182;28;20211;-64
2022/11/28 02:11:16;;;;;;;2.63;2.43;;;;;;;;;;5041322;28;20234;-64
2022/11/28 02:13:47;;;;;;;2.40;2.27;;;;;;;;;;5039440;28;20219;-64
2022/11/28 02:16:27;;;;;;;5.40;2.63;;;;;;;;;;5043313;28;20205;-64
2022/11/28 02:19:01;;;;;;;2.60;2.40;;;;;;;;;;5030901;28;20227;-65
2022/11/28 02:21:36;;;;;;;5.90;3.23;;;;;;;;;;5034360;28;20666;-64
2022/11/28 02:24:28;;;;;;;3.50;2.90;;;;;;;;;;5034532;28;20586;-64
2022/11/28 02:27:10;;;;;;;3.60;3.30;;;;;;;;;;5042158;28;20214;-64
2022/11/28 02:29:48;;;;;;;5.67;2.83;;;;;;;;;;5030662;28;20207;-64
2022/11/28 02:32:26;;;;;;;2.83;2.63;;;;;;;;;;5044673;28;20216;-64
2022/11/28 02:34:57;;;;;;;2.73;2.53;;;;;;;;;;5037029;28;20614;-64
2022/11/28 02:37:27;;;;;;;2.70;2.53;;;;;;;;;;5033785;28;20700;-64
2022/11/28 02:40:00;;;;;;;4.17;2.83;;;;;;;;;;5031259;28;20452;-64
2022/11/28 02:42:30;;;;;;;4.40;2.70;;;;;;;;;;5042930;28;20749;-65
2022/11/28 02:45:00;;;;;;;5.67;2.90;;;;;;;;;;5042095;28;20725;-64
2022/11/28 02:47:32;;;;;;;3.37;2.67;;;;;;;;;;5032337;28;20574;-65
2022/11/28 02:50:06;;;;;;;2.97;2.67;;;;;;;;;;5033062;28;20210;-64
2022/11/28 02:52:35;;;;;;;3.43;3.13;;;;;;;;;;5031474;28;20206;-64
2022/11/28 02:55:02;;;;;;;3.10;2.70;;;;;;;;;;5046161;28;20223;-64
2022/11/28 02:57:34;;;;;;;3.43;3.03;;;;;;;;;;5031542;28;20211;-64
2022/11/28 03:00:02;;;;;;;3.70;3.10;;;;;;;;;;5044444;28;20228;-65
2022/11/28 03:02:32;;;;;;;5.13;3.63;;;;;;;;;;5043202;28;20264;-65
2022/11/28 03:05:06;;;;;;;3.30;3.00;;;;;;;;;;5043260;28;20211;-64
2022/11/28 03:07:40;;;;;;;4.23;2.60;;;;;;;;;;5035158;28;20225;-65
2022/11/28 03:10:12;;;;;;;3.90;3.20;;;;;;;;;;5045935;28;20213;-64
2022/11/28 03:12:45;;;;;;;4.47;2.80;;;;;;;;;;5038131;28;20221;-64
2022/11/28 03:15:13;;;;;;;3.00;2.60;;;;;;;;;;5037258;28;20444;-64
2022/11/28 03:17:46;;;;;;;2.80;2.60;;;;;;;;;;5046383;28;20236;-64
2022/11/28 03:20:15;;;;;;;4.33;2.97;;;;;;;;;;5043356;28;20211;-64
2022/11/28 03:22:45;;;;;;;8.60;2.87;;;;;;;;;;5032428;28;20681;-64
2022/11/28 03:25:21;;;;;;;4.47;2.93;;;;;;;;;;5038189;28;20208;-64
2022/11/28 03:27:51;;;;;;;6.83;2.67;;;;;;;;;;5031685;28;20200;-64
2022/11/28 03:30:22;;;;;;;4.07;2.70;;;;;;;;;;5045954;28;20200;-64
2022/11/28 03:32:52;;;;;;;3.30;2.50;;;;;;;;;;5042392;28;20208;-64
2022/11/28 03:35:21;;;;;;;4.00;2.53;;;;;;;;;;5040278;28;20211;-64
2022/11/28 03:37:50;;;;;;;2.63;2.43;;;;;;;;;;5035890;28;20204;-64
2022/11/28 03:40:19;;;;;;;3.67;2.63;;;;;;;;;;5035197;28;20198;-65
2022/11/28 03:42:49;;;;;;;3.17;2.53;;;;;;;;;;5039050;28;20209;-64
2022/11/28 03:45:20;;;;;;;2.67;2.47;;;;;;;;;;5041141;28;20205;-64
2022/11/28 03:47:51;;;;;;;3.07;2.17;;;;;;;;;;5037150;28;20201;-65
2022/11/28 03:50:21;;;;;;;2.93;2.63;;;;;;;;;;5042724;28;20200;-64
2022/11/28 03:52:50;;;;;;;2.23;2.13;;;;;;;;;;5036975;28;20212;-65
2022/11/28 03:55:19;;;;;;;2.50;2.30;;;;;;;;;;5029981;28;20233;-64
2022/11/28 03:57:49;;;;;;;4.17;2.33;;;;;;;;;;5046325;28;20212;-64
2022/11/28 04:00:17;;;;;;;3.70;2.10;;;;;;;;;;5042835;28;20566;-64
2022/11/28 04:02:48;;;;;;;3.53;2.57;;;;;;;;;;5035918;28;20210;-65
2022/11/28 04:05:19;;;;;;;3.40;3.07;;;;;;;;;;5035816;28;20861;-65
2022/11/28 04:07:50;;;;;;;3.43;2.27;;;;;;;;;;5039953;28;20196;-64
2022/11/28 04:10:21;;;;;;;2.27;2.17;;;;;;;;;;5039265;28;20213;-64
2022/11/28 04:12:57;;;;;;;3.03;2.73;;;;;;;;;;5039896;28;20648;-64
2022/11/28 04:15:29;;;;;;;2.60;2.40;;;;;;;;;;5040554;28;20743;-64
2022/11/28 04:17:59;;;;;;;3.57;2.40;;;;;;;;;;5046236;28;20671;-64
2022/11/28 04:20:30;;;;;;;2.50;2.30;;;;;;;;;;5046098;28;20203;-64
2022/11/28 04:23:01;;;;;;;2.60;2.40;;;;;;;;;;5032499;28;20208;-64
2022/11/28 04:25:30;;;;;;;2.40;2.17;;;;;;;;;;5029253;28;20209;-64
2022/11/28 04:28:00;;;;;;;2.87;2.40;;;;;;;;;;5037450;28;20204;-65
2022/11/28 04:30:27;;;;;;;2.23;2.03;;;;;;;;;;5029857;28;20706;-65
2022/11/28 04:32:58;;;;;;;2.17;2.07;;;;;;;;;;5031017;28;20216;-64
2022/11/28 04:35:27;;;;;;;4.10;3.07;;;;;;;;;;5039124;28;20212;-64
2022/11/28 04:37:55;;;;;;;3.10;2.63;;;;;;;;;;5035699;28;20214;-64
2022/11/28 04:40:24;;;;;;;4.23;3.07;;;;;;;;;;5040819;28;20203;-64
2022/11/28 04:42:54;;;;;;;2.80;2.47;;;;;;;;;;5035504;28;20206;-65
2022/11/28 04:45:25;;;;;;;2.93;2.63;;;;;;;;;;5040561;28;20207;-64
2022/11/28 04:47:52;;;;;;;5.80;2.70;;;;;;;;;;5030431;28;20236;-64
2022/11/28 04:50:19;;;;;;;2.97;2.77;;;;;;;;;;5037434;28;20670;-65
2022/11/28 04:52:51;;;;;;;3.33;2.50;;;;;;;;;;5041608;28;20661;-64
2022/11/28 04:55:24;;;;;;;5.57;2.47;;;;;;;;;;5036226;28;20396;-64
2022/11/28 04:57:54;;;;;;;1.87;1.70;;;;;;;;;;5031647;28;20201;-65
2022/11/28 05:00:22;;;;;;;4.90;2.70;;;;;;;;;;5038541;28;20194;-64
2022/11/28 05:02:51;;;;;;;2.20;2.03;;;;;;;;;;5036655;28;20211;-64
2022/11/28 05:05:19;;;;;;;5.27;2.50;;;;;;;;;;5035438;28;20221;-65
2022/11/28 05:07:46;;;;;;;3.90;2.37;;;;;;;;;;5041717;28;20208;-64
2022/11/28 05:10:13;;;;;;;3.03;2.60;;;;;;;;;;5038989;28;20201;-64
2022/11/28 05:12:40;;;;;;;5.07;2.60;;;;;;;;;;5029181;28;20224;-64
2022/11/28 05:15:10;;;;;;;3.03;2.70;;;;;;;;;;5039944;28;20223;-64
2022/11/28 05:17:43;;;;;;;4.70;3.60;;;;;;;;;;5039918;28;20204;-65
2022/11/28 05:20:10;;;;;;;2.93;2.73;;;;;;;;;;5033138;28;20228;-64
2022/11/28 05:22:37;;;;;;;4.17;3.10;;;;;;;;;;5034949;28;20228;-63
2022/11/28 05:25:05;;;;;;;3.37;2.90;;;;;;;;;;5031830;28;20669;-64
2022/11/28 05:27:32;;;;;;;4.90;3.30;;;;;;;;;;5041770;28;20197;-65
2022/11/28 05:29:59;;;;;;;4.00;2.90;;;;;;;;;;5041896;28;20202;-64
2022/11/28 05:32:29;;;;;;;10.20;2.30;;;;;;;;;;5044530;28;20593;-64
2022/11/28 05:34:56;;;;;;;2.67;2.47;;;;;;;;;;5042501;28;20203;-64
2022/11/28 05:37:24;;;;;;;3.93;2.60;;;;;;;;;;5033193;28;20206;-64
2022/11/28 05:39:51;;;;;;;3.90;2.83;;;;;;;;;;5039595;28;20226;-64
2022/11/28 05:42:18;;;;;;;2.47;2.27;;;;;;;;;;5038152;28;20208;-64
2022/11/28 05:44:46;;;;;;;2.70;2.50;;;;;;;;;;5044324;28;20216;-64
2022/11/28 05:47:14;;;;;;;6.57;2.87;;;;;;;;;;5034265;28;20212;-64
2022/11/28 05:49:42;;;;;;;5.23;2.70;;;;;;;;;;5028433;28;20203;-65
2022/11/28 05:52:10;;;;;;;3.57;3.03;;;;;;;;;;5026906;28;21127;-64
2022/11/28 05:54:37;;;;;;;4.40;2.57;;;;;;;;;;5037002;28;20227;-65
2022/11/28 05:57:05;;;;;;;5.73;2.33;;;;;;;;;;5029690;28;20668;-64
2022/11/28 05:59:32;;;;;;;3.83;2.57;;;;;;;;;;5027702;28;20267;-64
2022/11/28 06:01:59;;;;;;;5.20;2.83;;;;;;;;;;5039923;28;20210;-64
2022/11/28 06:04:26;;;;;;;3.50;3.13;;;;;;;;;;5035754;28;20206;-64
2022/11/28 06:06:55;;;;;;;3.13;2.83;;;;;;;;;;5032605;28;20207;-64
2022/11/28 06:09:22;;;;;;;3.30;2.93;;;;;;;;;;5029052;28;20433;-65
2022/11/28 06:11:49;;;;;;;3.23;2.93;;;;;;;;;;5039751;28;20209;-64
2022/11/28 06:14:16;;;;;;;11.00;5.57;;;;;;;;;;5038325;28;20205;-64
2022/11/28 06:16:43;;;;;;;10.40;5.77;;;;;;;;;;5037905;28;20212;-64
2022/11/28 06:19:12;;;;;;;10.23;6.60;;;;;;;;;;5030293;28;20229;-64
2022/11/28 06:21:39;;;;;;;12.30;5.17;;;;;;;;;;5037019;28;20205;-64
2022/11/28 06:24:08;;;;;;;4.43;2.80;;;;;;;;;;5034506;28;20209;-64
2022/11/28 06:26:35;;;;;;;3.20;2.90;;;;;;;;;;5042807;28;20244;-64
2022/11/28 06:29:02;;;;;;;3.53;3.23;;;;;;;;;;5040308;28;20201;-63
2022/11/28 06:31:29;;;;;;;3.30;3.07;;;;;;;;;;5036300;28;20202;-64
2022/11/28 06:33:57;;;;;;;5.67;3.20;;;;;;;;;;5032303;28;20201;-65
2022/11/28 06:36:25;;;;;;;6.10;2.77;;;;;;;;;;5030015;28;20199;-65
2022/11/28 06:38:52;;;;;;;3.27;2.80;;;;;;;;;;5040620;28;20749;-65
2022/11/28 06:41:21;;;;;;;4.67;3.43;;;;;;;;;;5032138;28;20215;-66
2022/11/28 06:43:48;;;;;;;4.07;3.63;;;;;;;;;;5048120;28;20216;-65
2022/11/28 06:46:17;;;;;;;4.70;3.23;;;;;;;;;;5048269;28;20247;-65
2022/11/28 06:48:44;;;;;;;2.60;2.40;;;;;;;;;;5040870;28;20201;-65
2022/11/28 06:51:12;;;;;;;6.17;3.30;;;;;;;;;;5030115;28;20217;-64
2022/11/28 06:53:39;;;;;;;4.13;2.77;;;;;;;;;;5042077;28;20743;-64
2022/11/28 06:56:07;;;;;;;4.10;3.20;;;;;;;;;;5042909;28;20235;-64
2022/11/28 06:58:36;;;;;;;4.10;2.93;;;;;;;;;;5031998;28;20725;-64
2022/11/28 07:01:08;;;;;;;3.73;3.17;;;;;;;;;;5036209;28;20258;-65
2022/11/28 07:03:35;;;;;;;2.97;2.53;;;;;;;;;;5040266;28;20294;-65
2022/11/28 07:06:02;;;;;;;2.90;2.70;;;;;;;;;;5036345;28;20200;-65
2022/11/28 07:08:30;;;;;;;8.13;3.33;;;;;;;;;;5038196;28;20212;-63
2022/11/28 07:10:58;;;;;;;3.43;2.90;;;;;;;;;;5042057;28;20207;-65
2022/11/28 07:13:25;;;;;;;3.50;3.20;;;;;;;;;;5043891;28;20212;-66
2022/11/28 07:15:53;;;;;;;4.17;3.37;;;;;;;;;;5046589;28;20204;-65
2022/11/28 07:18:20;;;;;;;3.30;3.10;;;;;;;;;;5036425;28;20553;-63
2022/11/28 07:20:47;;;;;;;8.27;3.33;;;;;;;;;;5036302;28;20233;-65
2022/11/28 07:23:15;;;;;;;4.33;3.60;;;;;;;;;;5034675;28;20211;-64
2022/11/28 07:25:42;;;;;;;3.60;3.20;;;;;;;;;;5034732;28;20298;-65
2022/11/28 07:28:09;;;;;;;2.83;2.63;;;;;;;;;;5038372;28;20207;-64
2022/11/28 07:30:36;;;;;;;6.73;2.60;;;;;;;;;;5035702;28;20700;-65
2022/11/28 07:33:04;;;;;;;2.47;2.27;;;;;;;;;;5036048;28;20205;-65
2022/11/28 07:35:33;;;;;;;2.43;1.97;;;;;;;;;;5036204;28;20215;-65
2022/11/28 07:38:01;;;;;;;3.07;2.63;;;;;;;;;;5036705;28;20688;-63
2022/11/28 07:40:28;;;;;;;2.93;2.60;;;;;;;;;;5036827;28;20233;-65
2022/11/28 07:42:55;;;;;;;2.23;2.13;;;;;;;;;;5034236;28;20217;-65
2022/11/28 07:45:22;;;;;;;2.87;2.67;;;;;;;;;;5036395;28;20212;-65
2022/11/28 07:47:49;;;;;;;2.93;2.60;;;;;;;;;;5038338;28;20216;-65
2022/11/28 07:50:18;;;;;;;6.97;4.77;;;;;;;;;;5036741;28;20197;-65
2022/11/28 07:52:45;;;;;;;6.83;4.93;;;;;;;;;;5036530;28;20295;-65
2022/11/28 07:55:12;;;;;;;3.93;3.50;;;;;;;;;;5039010;28;20706;-65
2022/11/28 07:57:39;;;;;;;5.07;3.13;;;;;;;;;;5036421;28;20656;-66
2022/11/28 08:00:07;;;;;;;3.73;3.43;;;;;;;;;;5039005;28;20231;-64
2022/11/28 08:02:34;;;;;;;7.47;4.10;;;;;;;;;;5046635;28;20199;-63
2022/11/28 08:05:01;;;;;;;8.83;4.50;;;;;;;;;;5045258;28;20262;-64
2022/11/28 08:07:29;;;;;;;4.67;4.17;;;;;;;;;;5034448;28;20201;-63
2022/11/28 08:09:56;;;;;;;8.10;4.53;;;;;;;;;;5034684;28;20208;-63
2022/11/28 08:12:23;;;;;;;6.07;4.37;;;;;;;;;;5035648;28;20221;-63
2022/11/28 08:14:51;;;;;;;8.07;4.33;;;;;;;;;;5038932;28;20243;-63
2022/11/28 08:20:14;;;;;;;4.50;3.27;;;;;;;;;;4992315;28;20344;-64
2022/11/28 08:22:42;;;;;;;4.50;3.23;;;;;;;;;;5035431;28;20219;-64
2022/11/28 08:25:10;;;;;;;5.70;4.23;;;;;;;;;;5034295;28;20210;-64
2022/11/28 08:27:37;;;;;;;6.50;4.43;;;;;;;;;;5033602;28;20209;-64
2022/11/28 08:30:04;;;;;;;5.87;3.73;;;;;;;;;;5030931;28;20941;-64
2022/11/28 08:32:31;;;;;;;9.10;4.20;;;;;;;;;;5033422;28;20541;-64
2022/11/28 08:34:59;;;;;;;7.83;5.10;;;;;;;;;;5034485;28;20230;-64
2022/11/28 08:37:26;;;;;;;11.77;7.13;;;;;;;;;;5036716;28;20200;-64
2022/11/28 08:39:54;;;;;;;14.77;7.33;;;;;;;;;;5033638;28;20288;-64
2022/11/28 08:42:22;;;;;;;14.50;5.97;;;;;;;;;;5036243;28;20208;-64
2022/11/28 08:44:49;;;;;;;8.77;4.63;;;;;;;;;;5029901;28;20867;-65
2022/11/28 08:47:16;;;;;;;4.83;3.10;;;;;;;;;;5029001;28;20208;-65
2022/11/28 08:49:43;;;;;;;6.27;4.00;;;;;;;;;;5030209;28;20203;-66
2022/11/28 08:52:10;;;;;;;5.27;3.80;;;;;;;;;;5028866;28;20221;-64
2022/11/28 08:54:37;;;;;;;7.93;4.40;;;;;;;;;;5030711;28;20232;-64
2022/11/28 08:57:06;;;;;;;6.43;3.23;;;;;;;;;;5038540;28;20210;-65
2022/11/28 08:59:33;;;;;;;4.00;3.00;;;;;;;;;;5042001;28;20241;-65
2022/11/28 09:02:00;;;;;;;4.23;3.77;;;;;;;;;;5048414;28;20692;-65
2022/11/28 09:04:27;;;;;;;4.00;2.90;;;;;;;;;;5048254;28;20215;-65
2022/11/28 09:06:54;;;;;;;3.43;3.13;;;;;;;;;;5048254;28;20213;-65
2022/11/28 09:09:21;;;;;;;6.50;3.60;;;;;;;;;;5038729;28;20218;-64
2022/11/28 09:11:48;;;;;;;8.63;3.57;;;;;;;;;;5027590;28;20283;-65
2022/11/28 09:14:17;;;;;;;2.90;2.70;;;;;;;;;;5033394;28;20622;-64
2022/11/28 09:16:44;;;;;;;4.57;3.73;;;;;;;;;;5039877;28;20208;-65
2022/11/28 09:19:11;;;;;;;4.93;3.33;;;;;;;;;;5030885;28;20204;-65
2022/11/28 09:21:39;;;;;;;6.17;3.83;;;;;;;;;;5029240;28;20222;-64
2022/11/28 09:24:07;;;;;;;5.70;3.23;;;;;;;;;;5027735;28;20214;-65
2022/11/28 09:26:34;;;;;;;4.43;2.97;;;;;;;;;;5027228;28;20219;-64
2022/11/28 09:29:01;;;;;;;3.67;3.20;;;;;;;;;;5028069;28;20218;-65
2022/11/28 09:31:30;;;;;;;4.20;3.03;;;;;;;;;;5026762;28;20959;-64
2022/11/28 09:33:57;;;;;;;4.07;3.63;;;;;;;;;;5036478;28;20208;-66
2022/11/28 09:36:27;;;;;;;5.00;3.07;;;;;;;;;;5036937;28;20273;-65
2022/11/28 09:38:54;;;;;;;5.53;3.30;;;;;;;;;;5026827;28;20245;-65
2022/11/28 09:41:29;;;;;;;5.50;3.50;;;;;;;;;;5039608;28;20666;-64
2022/11/28 09:43:59;;;;;;;5.83;2.90;;;;;;;;;;5044521;28;20678;-68
2022/11/28 09:49:30;;;;;;;3.43;3.10;;;;;;;;;;5030251;28;20214;-64
2022/11/28 09:51:59;;;;;;;6.77;2.90;;;;;;;;;;5031957;28;20219;-69
2022/11/28 09:54:30;;;;;;;3.13;2.93;;;;;;;;;;5033125;28;20232;-69
2022/11/28 09:56:57;;;;;;;6.27;3.40;;;;;;;;;;5031263;28;20733;-67
2022/11/28 09:59:25;;;;;;;5.43;3.20;;;;;;;;;;5031623;28;20631;-68
2022/11/28 10:01:57;;;;;;;3.17;2.63;;;;;;;;;;5046707;28;20206;-68
2022/11/28 10:04:28;;;;;;;5.03;2.77;;;;;;;;;;5037295;28;20227;-68
2022/11/28 10:07:01;;;;;;;5.27;3.10;;;;;;;;;;5036744;28;20218;-68
2022/11/28 10:09:34;;;;;;;3.83;2.73;;;;;;;;;;5041272;28;20207;-67
2022/11/28 10:12:07;;;;;;;4.83;3.23;;;;;;;;;;5039859;28;20842;-64
2022/11/28 10:14:43;;;;;;;3.67;3.37;;;;;;;;;;5032866;28;20667;-64
2022/11/28 10:17:15;;;;;;;3.83;3.43;;;;;;;;;;5032077;28;20204;-67
2022/11/28 10:19:44;;;;;;;3.03;2.73;;;;;;;;;;5032304;28;20212;-64
2022/11/28 10:22:16;;;;;;;7.50;3.20;;;;;;;;;;5031298;28;20216;-64
2022/11/28 10:24:45;;;;;;;4.33;3.17;;;;;;;;;;5038759;28;20892;-64
2022/11/28 10:27:14;;;;;;;4.13;3.77;;;;;;;;;;5035408;28;20553;-64
2022/11/28 10:29:45;;;;;;;3.90;3.03;;;;;;;;;;5047720;28;20211;-64
2022/11/28 10:32:14;;;;;;;5.70;3.50;;;;;;;;;;5050400;28;20216;-64
2022/11/28 10:34:44;;;;;;;4.33;3.43;;;;;;;;;;5032381;28;20204;-64
2022/11/28 10:37:15;;;;;;;5.50;3.60;;;;;;;;;;5030687;28;20216;-64
2022/11/28 10:39:44;;;;;;;4.40;3.77;;;;;;;;;;5031018;28;20204;-63
2022/11/28 10:42:15;;;;;;;6.87;3.90;;;;;;;;;;5037739;28;20251;-63
2022/11/28 10:44:48;;;;;;;5.87;4.17;;;;;;;;;;5039943;28;20212;-63
2022/11/28 10:47:20;;;;;;;6.77;4.20;;;;;;;;;;5030565;28;20227;-64
2022/11/28 10:49:51;;;;;;;9.27;4.27;;;;;;;;;;5030049;28;20215;-63
2022/11/28 10:52:22;;;;;;;5.17;4.03;;;;;;;;;;5030567;28;20212;-63
2022/11/28 10:54:57;;;;;;;6.57;3.90;;;;;;;;;;5046891;28;20232;-64
2022/11/28 10:57:26;;;;;;;7.20;4.73;;;;;;;;;;5037080;28;20210;-61
2022/11/28 10:59:59;;;;;;;6.67;4.00;;;;;;;;;;5031080;28;20259;-65
2022/11/28 11:02:31;;;;;;;4.50;3.57;;;;;;;;;;5030301;28;20212;-63
2022/11/28 11:04:58;;;;;;;4.03;3.43;;;;;;;;;;5036297;28;20205;-64
2022/11/28 11:07:28;;;;;;;6.73;4.60;;;;;;;;;;5030132;28;20205;-64
2022/11/28 11:09:55;;;;;;;5.20;4.17;;;;;;;;;;5036132;28;20212;-64
2022/11/28 11:12:26;;;;;;;4.57;3.77;;;;;;;;;;5036617;28;20200;-64
2022/11/28 11:14:53;;;;;;;7.33;4.87;;;;;;;;;;5040538;28;20228;-65
2022/11/28 11:17:28;;;;;;;6.67;5.10;;;;;;;;;;5030992;28;20208;-64
2022/11/28 11:19:55;;;;;;;4.83;3.93;;;;;;;;;;5040905;28;20692;-66
2022/11/28 11:22:25;;;;;;;7.93;4.80;;;;;;;;;;5033528;28;20243;-65
2022/11/28 11:25:06;;;;;;;6.00;4.73;;;;;;;;;;5037310;28;20228;-65
2022/11/28 11:27:35;;;;;;;4.33;3.93;;;;;;;;;;5038176;28;20216;-65
2022/11/28 11:30:16;;;;;;;6.70;4.37;;;;;;;;;;5045240;28;20203;-64
2022/11/28 11:32:46;;;;;;;7.50;4.73;;;;;;;;;;5046595;28;20562;-64
2022/11/28 11:35:17;;;;;;;7.27;4.77;;;;;;;;;;5035043;28;20651;-65
2022/11/28 11:37:44;;;;;;;7.53;5.10;;;;;;;;;;5029923;28;20215;-67
2022/11/28 11:40:22;;;;;;;4.73;3.73;;;;;;;;;;5029569;28;20231;-64
2022/11/28 11:42:52;;;;;;;5.93;4.50;;;;;;;;;;5032015;28;20231;-66
2022/11/28 11:45:26;;;;;;;4.33;3.90;;;;;;;;;;5036088;28;20697;-64
2022/11/28 11:47:54;;;;;;;13.57;4.73;;;;;;;;;;5036067;28;20212;-64
2022/11/28 11:50:22;;;;;;;6.03;4.50;;;;;;;;;;5029334;28;20864;-64
2022/11/28 11:53:00;;;;;;;6.10;4.77;;;;;;;;;;5029434;28;20220;-64
2022/11/28 11:55:30;;;;;;;6.63;4.30;;;;;;;;;;5028933;28;20586;-64
2022/11/28 11:57:59;;;;;;;5.57;4.27;;;;;;;;;;5029200;28;20214;-64
2022/11/28 12:00:29;;;;;;;6.67;4.33;;;;;;;;;;5029040;28;20232;-65
2022/11/28 12:02:58;;;;;;;7.23;4.60;;;;;;;;;;5029756;28;20200;-65
2022/11/28 12:05:30;;;;;;;8.07;4.50;;;;;;;;;;5029678;28;20196;-65
2022/11/28 12:07:58;;;;;;;5.77;4.30;;;;;;;;;;5034297;28;20636;-70
2022/11/28 12:10:26;;;;;;;4.90;4.40;;;;;;;;;;5049085;28;20576;-65
2022/11/28 12:12:55;;;;;;;6.67;4.70;;;;;;;;;;5033553;28;20215;-65
2022/11/28 12:15:28;;;;;;;5.37;4.43;;;;;;;;;;5044582;28;20277;-73
2022/11/28 12:18:02;;;;;;;6.77;4.70;;;;;;;;;;5029506;28;20212;-71
2022/11/28 12:20:34;;;;;;;8.57;4.63;;;;;;;;;;5029229;28;20676;-69
2022/11/28 12:23:07;;;;;;;5.63;4.87;;;;;;;;;;5029524;28;20330;-65
2022/11/28 12:25:37;;;;;;;4.90;4.07;;;;;;;;;;5029214;28;20207;-65
2022/11/28 12:28:10;;;;;;;5.50;3.90;;;;;;;;;;5034375;28;20203;-64
2022/11/28 12:30:41;;;;;;;9.40;4.70;;;;;;;;;;5039543;28;20702;-68
2022/11/28 12:33:17;;;;;;;5.33;4.80;;;;;;;;;;5030266;28;20223;-66
2022/11/28 12:35:49;;;;;;;6.67;4.93;;;;;;;;;;5038865;28;20235;-66
2022/11/28 12:38:23;;;;;;;7.00;4.57;;;;;;;;;;5031613;28;20238;-66
2022/11/28 12:41:03;;;;;;;6.37;4.40;;;;;;;;;;5039096;28;20220;-66
2022/11/28 12:43:40;;;;;;;4.93;4.20;;;;;;;;;;5035481;28;20737;-66
2022/11/28 12:46:13;;;;;;;5.87;4.77;;;;;;;;;;5040453;28;20287;-67
2022/11/28 12:48:48;;;;;;;8.07;4.67;;;;;;;;;;5034907;28;20223;-65
2022/11/28 12:51:20;;;;;;;5.10;4.33;;;;;;;;;;5029491;28;20617;-65
2022/11/28 12:54:02;;;;;;;9.10;4.80;;;;;;;;;;5035465;28;20299;-65
2022/11/28 12:56:34;;;;;;;6.93;5.03;;;;;;;;;;5029493;28;20303;-66
2022/11/28 12:59:04;;;;;;;8.13;5.20;;;;;;;;;;5031374;28;20250;-63
2022/11/28 13:01:39;;;;;;;7.60;5.27;;;;;;;;;;5037865;28;20232;-64
2022/11/28 13:04:12;;;;;;;8.27;4.93;;;;;;;;;;5033691;28;20199;-64
2022/11/28 13:06:44;;;;;;;6.93;4.37;;;;;;;;;;5035542;28;20254;-63
2022/11/28 13:09:22;;;;;;;7.23;5.37;;;;;;;;;;5032852;28;20212;-64
2022/11/28 13:11:52;;;;;;;10.17;5.87;;;;;;;;;;5029016;28;20750;-65
2022/11/28 13:14:25;;;;;;;5.97;4.47;;;;;;;;;;5030989;28;20210;-65
2022/11/28 13:16:53;;;;;;;15.17;5.27;;;;;;;;;;5031208;28;20208;-66
2022/11/28 13:19:28;;;;;;;12.90;5.93;;;;;;;;;;5032653;28;20743;-63
2022/11/28 13:21:59;;;;;;;8.63;5.53;;;;;;;;;;5035971;28;20219;-66
2022/11/28 13:24:29;;;;;;;7.43;5.27;;;;;;;;;;5031900;28;20200;-65
2022/11/28 13:27:01;;;;;;;9.43;5.57;;;;;;;;;;5043122;28;20204;-66
2022/11/28 13:29:34;;;;;;;7.67;5.30;;;;;;;;;;5035725;28;20212;-65
2022/11/28 13:32:03;;;;;;;9.17;5.70;;;;;;;;;;5037712;28;20216;-66
2022/11/28 13:34:30;;;;;;;6.47;4.50;;;;;;;;;;5033594;28;20204;-66
2022/11/28 13:37:02;;;;;;;5.53;4.97;;;;;;;;;;5036626;28;20204;-66
2022/11/28 13:39:34;;;;;;;6.63;5.27;;;;;;;;;;5033941;28;20205;-66
2022/11/28 13:42:06;;;;;;;9.07;5.57;;;;;;;;;;5038826;28;20232;-68
2022/11/28 13:44:38;;;;;;;9.03;5.57;;;;;;;;;;5029955;28;20605;-66
2022/11/28 13:47:26;;;;;;;6.47;5.70;;;;;;;;;;5039616;28;20295;-67
2022/11/28 13:50:18;;;;;;;7.17;5.13;;;;;;;;;;5031982;28;20277;-66
2022/11/28 13:52:45;;;;;;;9.67;5.93;;;;;;;;;;5038038;28;20559;-66
2022/11/28 13:55:27;;;;;;;10.27;6.40;;;;;;;;;;5039917;28;20224;-66
2022/11/28 13:57:55;;;;;;;8.43;5.93;;;;;;;;;;5036712;28;20239;-66
2022/11/28 14:00:24;;;;;;;8.87;6.07;;;;;;;;;;5040068;28;20219;-66
2022/11/28 14:02:52;;;;;;;8.37;6.00;;;;;;;;;;5040228;28;20560;-66
2022/11/28 14:05:31;;;;;;;11.20;6.43;;;;;;;;;;5039840;28;20203;-66
2022/11/28 14:07:59;;;;;;;10.23;6.57;;;;;;;;;;5037545;28;20213;-66
2022/11/28 14:10:38;;;;;;;5.93;5.03;;;;;;;;;;5038410;28;20204;-67
2022/11/28 14:13:29;;;;;;;10.70;5.77;;;;;;;;;;5036816;28;20208;-66
2022/11/28 14:16:04;;;;;;;8.03;5.90;;;;;;;;;;5029869;28;20310;-66
2022/11/28 14:18:38;;;;;;;10.27;6.00;;;;;;;;;;5034327;28;20203;-66
2022/11/28 14:21:09;;;;;;;8.70;6.13;;;;;;;;;;5036961;28;20220;-66
2022/11/28 14:23:41;;;;;;;7.70;5.47;;;;;;;;;;5040055;28;20225;-67
2022/11/28 14:26:13;;;;;;;7.90;5.43;;;;;;;;;;5036539;28;20204;-67
2022/11/28 14:28:44;;;;;;;9.27;5.87;;;;;;;;;;5039350;28;20759;-65
2022/11/28 14:31:21;;;;;;;10.93;5.97;;;;;;;;;;5037251;28;20196;-65
2022/11/28 14:33:48;;;;;;;10.03;6.37;;;;;;;;;;5034063;28;20204;-65
2022/11/28 14:36:23;;;;;;;13.93;5.27;;;;;;;;;;5040314;28;20204;-67
2022/11/28 14:39:18;;;;;;;8.93;6.13;;;;;;;;;;5033618;28;20205;-66
2022/11/28 14:42:04;;;;;;;11.70;6.10;;;;;;;;;;5037883;28;20251;-67
2022/11/28 14:44:49;;;;;;;11.37;5.90;;;;;;;;;;5039490;28;20906;-67
2022/11/28 14:47:27;;;;;;;9.63;6.03;;;;;;;;;;5040113;28;20215;-67
2022/11/28 14:50:09;;;;;;;9.60;5.63;;;;;;;;;;5032022;28;20210;-66
2022/11/28 14:52:37;;;;;;;12.43;6.03;;;;;;;;;;5036437;28;20235;-66
2022/11/28 14:55:05;;;;;;;8.20;5.77;;;;;;;;;;5040186;28;20238;-66
2022/11/28 14:57:35;;;;;;;8.70;5.83;;;;;;;;;;5029940;28;20387;-67
2022/11/28 15:00:06;;;;;;;9.17;6.00;;;;;;;;;;5030039;28;20348;-65
2022/11/28 15:02:55;;;;;;;8.50;5.87;;;;;;;;;;5045272;28;20285;-67
2022/11/28 15:05:36;;;;;;;9.80;6.20;;;;;;;;;;5048461;28;20277;-65